sensor_id;sensor_type;location;lat;lon;timestamp;pressure;altitude;pressure_sealevel;temperature;humidity
26657;BME280;14279;50.010;8.260;2023-03-16T02:44:13;100888.13;;;3.19;69.85
26657;BME280;14279;50.010;8.260;2023-03-16T02:46:41;100894.94;;;3.25;69.75
26657;BME280;14279;50.010;8.260;2023-03-16T02:49:37;100883.78;;;3.29;69.45
26657;BME280;14279;50.010;8.260;2023-03-16T02:52:04;100876.81;;;3.37;69.46
26657;BME280;14279;50.010;8.260;2023-03-16T02:54:31;100872.56;;;3.38;68.94
26657;BME280;14279;50.010;8.260;2023-03-16T02:56:57;100865.66;;;3.38;68.86
26657;BME280;14279;50.010;8.260;2023-03-16T02:59:22;100864.81;;;3.41;68.65
26657;BME280;14279;50.010;8.260;2023-03-16T03:01:48;100863.25;;;3.21;69.02
26657;BME280;14279;50.010;8.260;2023-03-16T03:04:16;100871.72;;;3.33;69.01
26657;BME280;14279;50.010;8.260;2023-03-16T03:06:41;100873.44;;;3.30;69.51
26657;BME280;14279;50.010;8.260;2023-03-16T03:09:07;100882.03;;;3.31;69.32
26657;BME280;14279;50.010;8.260;2023-03-16T03:11:32;100886.34;;;3.29;69.43
26657;BME280;14279;50.010;8.260;2023-03-16T03:13:58;100877.81;;;3.21;69.57
26657;BME280;14279;50.010;8.260;2023-03-16T03:16:23;100876.13;;;3.18;69.74
26657;BME280;14279;50.010;8.260;2023-03-16T03:18:49;100869.25;;;3.19;69.79
26657;BME280;14279;50.010;8.260;2023-03-16T03:21:14;100865.72;;;3.34;69.40
26657;BME280;14279;50.010;8.260;2023-03-16T03:23:40;100868.28;;;3.34;69.87
26657;BME280;14279;50.010;8.260;2023-03-16T03:26:06;100871.75;;;3.29;69.77
26657;BME280;14279;50.010;8.260;2023-03-16T03:28:31;100869.16;;;3.33;69.83
26657;BME280;14279;50.010;8.260;2023-03-16T03:30:58;100870.88;;;3.30;69.80
26657;BME280;14279;50.010;8.260;2023-03-16T03:33:24;100865.78;;;3.26;69.32
26657;BME280;14279;50.010;8.260;2023-03-16T03:35:54;100864.09;;;3.23;69.85
26657;BME280;14279;50.010;8.260;2023-03-16T03:38:20;100865.88;;;3.12;70.31
26657;BME280;14279;50.010;8.260;2023-03-16T03:40:49;100861.53;;;3.20;70.11
26657;BME280;14279;50.010;8.260;2023-03-16T03:43:14;100859.88;;;3.13;70.40
26657;BME280;14279;50.010;8.260;2023-03-16T03:45:39;100864.19;;;3.05;70.86
26657;BME280;14279;50.010;8.260;2023-03-16T03:48:05;100856.56;;;2.95;71.02
26657;BME280;14279;50.010;8.260;2023-03-16T03:50:30;100855.72;;;2.93;71.39
26657;BME280;14279;50.010;8.260;2023-03-16T03:52:55;100858.28;;;2.93;70.97
26657;BME280;14279;50.010;8.260;2023-03-16T03:55:20;100862.59;;;2.90;71.52
26657;BME280;14279;50.010;8.260;2023-03-16T03:57:46;100865.19;;;2.87;71.52
26657;BME280;14279;50.010;8.260;2023-03-16T04:00:11;100860.09;;;2.80;71.60
26657;BME280;14279;50.010;8.260;2023-03-16T04:02:38;100855.03;;;2.63;71.89
26657;BME280;14279;50.010;8.260;2023-03-16T04:05:05;100849.78;;;2.79;71.62
26657;BME280;14279;50.010;8.260;2023-03-16T04:07:30;100848.06;;;2.81;72.22
26657;BME280;14279;50.010;8.260;2023-03-16T04:09:55;100853.19;;;2.87;72.29
26657;BME280;14279;50.010;8.260;2023-03-16T04:12:21;100856.66;;;2.78;72.14
26657;BME280;14279;50.010;8.260;2023-03-16T04:14:46;100853.22;;;2.81;71.93
26657;BME280;14279;50.010;8.260;2023-03-16T04:17:11;100858.34;;;2.85;72.36
26657;BME280;14279;50.010;8.260;2023-03-16T04:19:37;100858.38;;;2.78;72.72
26657;BME280;14279;50.010;8.260;2023-03-16T04:22:02;100853.28;;;2.75;72.45
26657;BME280;14279;50.010;8.260;2023-03-16T04:24:28;100851.50;;;2.83;72.69
26657;BME280;14279;50.010;8.260;2023-03-16T04:26:53;100850.72;;;2.68;72.93
26657;BME280;14279;50.010;8.260;2023-03-16T04:29:18;100855.03;;;2.60;72.74
26657;BME280;14279;50.010;8.260;2023-03-16T04:31:44;100849.81;;;2.77;73.06
26657;BME280;14279;50.010;8.260;2023-03-16T04:34:10;100849.06;;;2.63;73.10
26657;BME280;14279;50.010;8.260;2023-03-16T04:36:36;100845.63;;;2.64;72.96
26657;BME280;14279;50.010;8.260;2023-03-16T04:39:03;100844.72;;;2.69;73.34
26657;BME280;14279;50.010;8.260;2023-03-16T04:41:28;100836.16;;;2.67;73.93
26657;BME280;14279;50.010;8.260;2023-03-16T04:43:54;100840.41;;;2.75;73.44
26657;BME280;14279;50.010;8.260;2023-03-16T04:46:19;100836.19;;;2.64;74.12
26657;BME280;14279;50.010;8.260;2023-03-16T04:48:44;100839.63;;;2.60;74.22
26657;BME280;14279;50.010;8.260;2023-03-16T04:51:10;100846.34;;;2.80;73.41
26657;BME280;14279;50.010;8.260;2023-03-16T04:53:35;100852.34;;;2.83;73.57
26657;BME280;14279;50.010;8.260;2023-03-16T04:56:00;100849.75;;;2.88;73.48
26657;BME280;14279;50.010;8.260;2023-03-16T04:58:26;100846.34;;;2.86;73.74
26657;BME280;14279;50.010;8.260;2023-03-16T05:00:52;100850.59;;;2.93;73.77
26657;BME280;14279;50.010;8.260;2023-03-16T05:03:18;100849.75;;;2.88;73.85
26657;BME280;14279;50.010;8.260;2023-03-16T05:05:45;100853.13;;;2.98;72.98
26657;BME280;14279;50.010;8.260;2023-03-16T05:08:10;100843.69;;;2.98;73.00
26657;BME280;14279;50.010;8.260;2023-03-16T05:10:36;100838.56;;;2.95;73.34
26657;BME280;14279;50.010;8.260;2023-03-16T05:13:02;100839.38;;;3.02;73.43
26657;BME280;14279;50.010;8.260;2023-03-16T05:15:27;100835.97;;;2.98;72.89
26657;BME280;14279;50.010;8.260;2023-03-16T05:17:54;100830.78;;;3.03;73.12
26657;BME280;14279;50.010;8.260;2023-03-16T05:20:20;100835.94;;;3.01;73.23
26657;BME280;14279;50.010;8.260;2023-03-16T05:22:47;100830.78;;;3.01;73.20
26657;BME280;14279;50.010;8.260;2023-03-16T05:25:13;100826.53;;;2.96;73.74
26657;BME280;14279;50.010;8.260;2023-03-16T05:27:44;100827.44;;;2.93;73.84
26657;BME280;14279;50.010;8.260;2023-03-16T05:30:10;100813.78;;;2.87;73.26
26657;BME280;14279;50.010;8.260;2023-03-16T05:32:36;100822.25;;;2.95;73.66
26657;BME280;14279;50.010;8.260;2023-03-16T05:35:03;100814.59;;;2.90;73.44
26657;BME280;14279;50.010;8.260;2023-03-16T05:37:29;100814.53;;;2.98;73.24
26657;BME280;14279;50.010;8.260;2023-03-16T05:39:55;100806.81;;;2.98;72.90
26657;BME280;14279;50.010;8.260;2023-03-16T05:42:21;100808.50;;;3.02;72.74
26657;BME280;14279;50.010;8.260;2023-03-16T05:44:47;100811.16;;;2.91;72.88
26657;BME280;14279;50.010;8.260;2023-03-16T05:47:13;100821.38;;;3.00;73.23
26657;BME280;14279;50.010;8.260;2023-03-16T05:49:38;100823.13;;;2.98;72.81
26657;BME280;14279;50.010;8.260;2023-03-16T05:52:03;100818.72;;;3.13;72.66
26657;BME280;14279;50.010;8.260;2023-03-16T05:54:29;100820.41;;;3.14;72.63
26657;BME280;14279;50.010;8.260;2023-03-16T05:56:54;100818.81;;;2.99;72.78
26657;BME280;14279;50.010;8.260;2023-03-16T05:59:19;100813.72;;;2.90;72.86
26657;BME280;14279;50.010;8.260;2023-03-16T06:01:45;100813.72;;;2.93;72.58
26657;BME280;14279;50.010;8.260;2023-03-16T06:04:10;100821.38;;;2.99;72.79
26657;BME280;14279;50.010;8.260;2023-03-16T06:06:36;100827.25;;;3.13;72.33
26657;BME280;14279;50.010;8.260;2023-03-16T06:09:01;100819.44;;;3.27;72.04
26657;BME280;14279;50.010;8.260;2023-03-16T06:11:26;100823.78;;;3.22;71.93
26657;BME280;14279;50.010;8.260;2023-03-16T06:13:51;100823.84;;;3.16;71.95
26657;BME280;14279;50.010;8.260;2023-03-16T06:16:17;100827.22;;;3.20;72.22
26657;BME280;14279;50.010;8.260;2023-03-16T06:18:44;100824.66;;;3.20;71.68
26657;BME280;14279;50.010;8.260;2023-03-16T06:21:10;100818.66;;;3.22;71.57
26657;BME280;14279;50.010;8.260;2023-03-16T06:23:35;100826.44;;;3.13;71.69
26657;BME280;14279;50.010;8.260;2023-03-16T06:26:00;100831.63;;;3.05;71.92
26657;BME280;14279;50.010;8.260;2023-03-16T06:28:26;100834.03;;;3.25;71.58
26657;BME280;14279;50.010;8.260;2023-03-16T06:30:56;100836.59;;;3.28;71.36
26657;BME280;14279;50.010;8.260;2023-03-16T06:33:22;100834.91;;;3.26;71.21
26657;BME280;14279;50.010;8.260;2023-03-16T06:35:48;100831.41;;;3.33;71.34
26657;BME280;14279;50.010;8.260;2023-03-16T06:38:14;100832.19;;;3.43;71.22
26657;BME280;14279;50.010;8.260;2023-03-16T06:40:53;100835.50;;;3.54;70.07
26657;BME280;14279;50.010;8.260;2023-03-16T06:43:48;100830.19;;;3.73;69.61
26657;BME280;14279;50.010;8.260;2023-03-16T06:46:23;100830.38;;;3.53;70.26
26657;BME280;14279;50.010;8.260;2023-03-16T06:48:48;100836.97;;;3.80;69.49
26657;BME280;14279;50.010;8.260;2023-03-16T06:51:24;100831.56;;;4.03;68.95
26657;BME280;14279;50.010;8.260;2023-03-16T06:54:19;100834.09;;;4.08;68.48
26657;BME280;14279;50.010;8.260;2023-03-16T06:59:40;100830.06;;;3.85;68.88
26657;BME280;14279;50.010;8.260;2023-03-16T07:02:12;100826.06;;;3.58;69.33
26657;BME280;14279;50.010;8.260;2023-03-16T07:07:43;100824.25;;;3.65;69.94
26657;BME280;14279;50.010;8.260;2023-03-16T07:13:09;100827.88;;;3.45;69.69
26657;BME280;14279;50.010;8.260;2023-03-16T07:15:38;100831.19;;;3.58;69.77
26657;BME280;14279;50.010;8.260;2023-03-16T07:18:03;100835.34;;;3.73;69.78
26657;BME280;14279;50.010;8.260;2023-03-16T07:20:28;100839.16;;;4.16;68.66
26657;BME280;14279;50.010;8.260;2023-03-16T07:22:59;100832.13;;;4.30;67.50
26657;BME280;14279;50.010;8.260;2023-03-16T07:25:26;100832.81;;;4.43;67.43
26657;BME280;14279;50.010;8.260;2023-03-16T07:27:52;100838.16;;;4.28;67.92
26657;BME280;14279;50.010;8.260;2023-03-16T07:30:17;100836.56;;;4.17;68.11
26657;BME280;14279;50.010;8.260;2023-03-16T07:32:42;100834.53;;;4.44;67.41
26657;BME280;14279;50.010;8.260;2023-03-16T07:35:09;100836.66;;;4.75;66.49
26657;BME280;14279;50.010;8.260;2023-03-16T07:37:35;100829.88;;;4.70;66.22
26657;BME280;14279;50.010;8.260;2023-03-16T07:40:01;100837.03;;;4.47;66.95
26657;BME280;14279;50.010;8.260;2023-03-16T07:42:27;100824.94;;;4.53;67.66
26657;BME280;14279;50.010;8.260;2023-03-16T07:44:52;100834.28;;;4.63;66.65
26657;BME280;14279;50.010;8.260;2023-03-16T07:47:17;100836.47;;;4.91;66.10
26657;BME280;14279;50.010;8.260;2023-03-16T07:49:43;100834.94;;;4.76;66.19
26657;BME280;14279;50.010;8.260;2023-03-16T07:52:09;100834.47;;;4.47;67.35
26657;BME280;14279;50.010;8.260;2023-03-16T07:54:38;100830.09;;;4.53;67.59
26657;BME280;14279;50.010;8.260;2023-03-16T07:57:04;100835.00;;;4.71;66.91
26657;BME280;14279;50.010;8.260;2023-03-16T07:59:29;100830.06;;;4.56;67.19
26657;BME280;14279;50.010;8.260;2023-03-16T08:01:55;100834.28;;;4.61;66.99
26657;BME280;14279;50.010;8.260;2023-03-16T08:04:20;100838.84;;;4.41;67.98
26657;BME280;14279;50.010;8.260;2023-03-16T08:06:46;100834.78;;;4.87;66.74
26657;BME280;14279;50.010;8.260;2023-03-16T08:09:11;100840.19;;;5.26;65.80
26657;BME280;14279;50.010;8.260;2023-03-16T08:11:37;100834.75;;;5.43;65.10
26657;BME280;14279;50.010;8.260;2023-03-16T08:14:02;100832.56;;;5.70;64.17
26657;BME280;14279;50.010;8.260;2023-03-16T08:16:28;100831.84;;;5.11;65.77
26657;BME280;14279;50.010;8.260;2023-03-16T08:18:56;100831.38;;;5.39;65.01
26657;BME280;14279;50.010;8.260;2023-03-16T08:21:22;100825.44;;;5.83;63.71
26657;BME280;14279;50.010;8.260;2023-03-16T08:23:48;100824.19;;;5.55;64.31
26657;BME280;14279;50.010;8.260;2023-03-16T08:26:23;100824.81;;;5.68;63.85
26657;BME280;14279;50.010;8.260;2023-03-16T08:28:52;100824.00;;;6.13;63.21
26657;BME280;14279;50.010;8.260;2023-03-16T08:31:19;100818.06;;;6.08;62.70
26657;BME280;14279;50.010;8.260;2023-03-16T08:33:46;100818.72;;;5.72;63.79
26657;BME280;14279;50.010;8.260;2023-03-16T08:36:13;100815.47;;;6.10;63.16
26657;BME280;14279;50.010;8.260;2023-03-16T08:38:40;100816.72;;;6.32;62.20
26657;BME280;14279;50.010;8.260;2023-03-16T08:41:05;100799.75;;;6.19;62.22
26657;BME280;14279;50.010;8.260;2023-03-16T08:43:30;100802.78;;;5.96;63.94
26657;BME280;14279;50.010;8.260;2023-03-16T08:45:56;100811.13;;;6.12;62.78
26657;BME280;14279;50.010;8.260;2023-03-16T08:48:23;100815.44;;;6.52;62.08
26657;BME280;14279;50.010;8.260;2023-03-16T08:50:48;100811.63;;;6.69;61.81
26657;BME280;14279;50.010;8.260;2023-03-16T08:53:14;100809.91;;;6.69;61.46
26657;BME280;14279;50.010;8.260;2023-03-16T08:55:40;100808.59;;;6.87;60.99
26657;BME280;14279;50.010;8.260;2023-03-16T08:58:07;100812.69;;;6.60;61.32
26657;BME280;14279;50.010;8.260;2023-03-16T09:00:32;100811.41;;;6.78;61.51
26657;BME280;14279;50.010;8.260;2023-03-16T09:02:58;100808.28;;;6.64;61.92
26657;BME280;14279;50.010;8.260;2023-03-16T09:05:24;100797.53;;;6.82;61.62
26657;BME280;14279;50.010;8.260;2023-03-16T09:07:51;100794.69;;;6.93;60.36
26657;BME280;14279;50.010;8.260;2023-03-16T09:10:17;100796.22;;;7.00;61.09
26657;BME280;14279;50.010;8.260;2023-03-16T09:13:02;100790.25;;;7.33;60.19
26657;BME280;14279;50.010;8.260;2023-03-16T09:15:28;100791.16;;;7.32;59.67
26657;BME280;14279;50.010;8.260;2023-03-16T09:17:53;100785.41;;;7.54;58.66
26657;BME280;14279;50.010;8.260;2023-03-16T09:20:20;100783.13;;;7.41;58.84
26657;BME280;14279;50.010;8.260;2023-03-16T09:22:45;100786.75;;;7.98;57.12
26657;BME280;14279;50.010;8.260;2023-03-16T09:25:10;100776.19;;;7.75;57.69
26657;BME280;14279;50.010;8.260;2023-03-16T09:27:36;100775.63;;;7.32;57.81
26657;BME280;14279;50.010;8.260;2023-03-16T09:30:03;100774.31;;;7.47;58.31
26657;BME280;14279;50.010;8.260;2023-03-16T09:32:29;100772.06;;;7.67;57.28
26657;BME280;14279;50.010;8.260;2023-03-16T09:34:54;100778.84;;;7.72;57.52
26657;BME280;14279;50.010;8.260;2023-03-16T09:37:20;100786.38;;;7.49;57.89
26657;BME280;14279;50.010;8.260;2023-03-16T09:39:47;100782.75;;;7.55;57.40
26657;BME280;14279;50.010;8.260;2023-03-16T09:42:18;100777.28;;;7.66;58.31
26657;BME280;14279;50.010;8.260;2023-03-16T09:47:32;100778.59;;;7.81;57.74
26657;BME280;14279;50.010;8.260;2023-03-16T09:50:04;100781.69;;;7.94;57.50
26657;BME280;14279;50.010;8.260;2023-03-16T09:55:26;100778.53;;;7.84;58.12
26657;BME280;14279;50.010;8.260;2023-03-16T09:57:56;100778.13;;;7.98;57.60
26657;BME280;14279;50.010;8.260;2023-03-16T10:00:29;100777.13;;;7.72;58.52
26657;BME280;14279;50.010;8.260;2023-03-16T10:05:30;100769.59;;;7.94;57.42
26657;BME280;14279;50.010;8.260;2023-03-16T10:08:21;100764.47;;;8.51;56.27
26657;BME280;14279;50.010;8.260;2023-03-16T10:11:04;100759.28;;;8.21;56.35
26657;BME280;14279;50.010;8.260;2023-03-16T10:16:25;100760.47;;;8.41;55.34
26657;BME280;14279;50.010;8.260;2023-03-16T10:19:08;100768.97;;;8.75;54.67
26657;BME280;14279;50.010;8.260;2023-03-16T10:21:39;100765.56;;;8.72;54.43
26657;BME280;14279;50.010;8.260;2023-03-16T10:24:15;100766.81;;;8.31;55.44
26657;BME280;14279;50.010;8.260;2023-03-16T10:26:54;100763.34;;;8.60;54.57
26657;BME280;14279;50.010;8.260;2023-03-16T10:29:24;100764.25;;;9.13;53.57
26657;BME280;14279;50.010;8.260;2023-03-16T10:31:50;100764.53;;;9.03;53.52
26657;BME280;14279;50.010;8.260;2023-03-16T10:34:15;100755.91;;;8.76;54.01
26657;BME280;14279;50.010;8.260;2023-03-16T10:36:43;100750.88;;;8.71;54.47
26657;BME280;14279;50.010;8.260;2023-03-16T10:39:11;100746.44;;;9.02;53.70
26657;BME280;14279;50.010;8.260;2023-03-16T10:41:54;100747.22;;;9.04;53.96
26657;BME280;14279;50.010;8.260;2023-03-16T10:44:25;100753.69;;;9.17;53.68
26657;BME280;14279;50.010;8.260;2023-03-16T10:47:00;100750.72;;;9.03;53.71
26657;BME280;14279;50.010;8.260;2023-03-16T10:49:34;100749.13;;;9.50;52.57
26657;BME280;14279;50.010;8.260;2023-03-16T10:52:10;100738.16;;;9.41;52.97
26657;BME280;14279;50.010;8.260;2023-03-16T10:54:38;100730.38;;;9.65;52.47
26657;BME280;14279;50.010;8.260;2023-03-16T10:59:51;100731.94;;;9.45;53.45
26657;BME280;14279;50.010;8.260;2023-03-16T11:02:21;100729.88;;;9.55;52.65
26657;BME280;14279;50.010;8.260;2023-03-16T11:04:48;100730.38;;;9.65;52.64
26657;BME280;14279;50.010;8.260;2023-03-16T11:07:18;100727.75;;;9.41;52.88
26657;BME280;14279;50.010;8.260;2023-03-16T11:09:44;100727.56;;;9.71;52.89
26657;BME280;14279;50.010;8.260;2023-03-16T11:12:30;100718.56;;;9.80;52.24
26657;BME280;14279;50.010;8.260;2023-03-16T11:15:14;100713.03;;;9.89;52.03
26657;BME280;14279;50.010;8.260;2023-03-16T11:17:48;100727.16;;;9.82;52.26
26657;BME280;14279;50.010;8.260;2023-03-16T11:20:44;100722.41;;;10.17;51.05
26657;BME280;14279;50.010;8.260;2023-03-16T11:24:01;100713.53;;;10.45;50.36
26657;BME280;14279;50.010;8.260;2023-03-16T11:26:33;100711.69;;;10.70;49.98
26657;BME280;14279;50.010;8.260;2023-03-16T11:29:04;100707.28;;;10.49;50.80
26657;BME280;14279;50.010;8.260;2023-03-16T11:31:46;100705.38;;;10.96;49.68
26657;BME280;14279;50.010;8.260;2023-03-16T11:34:16;100706.31;;;10.95;49.81
26657;BME280;14279;50.010;8.260;2023-03-16T11:36:49;100696.59;;;10.78;49.86
26657;BME280;14279;50.010;8.260;2023-03-16T11:39:26;100701.03;;;10.76;50.46
26657;BME280;14279;50.010;8.260;2023-03-16T11:42:34;100686.78;;;11.45;47.98
26657;BME280;14279;50.010;8.260;2023-03-16T11:50:16;100667.09;;;11.19;49.22
26657;BME280;14279;50.010;8.260;2023-03-16T11:55:41;100651.81;;;11.68;47.90
26657;BME280;14279;50.010;8.260;2023-03-16T11:58:30;100647.94;;;11.39;48.83
26657;BME280;14279;50.010;8.260;2023-03-16T12:01:09;100652.97;;;11.04;49.60
26657;BME280;14279;50.010;8.260;2023-03-16T12:03:53;100647.75;;;11.63;48.92
26657;BME280;14279;50.010;8.260;2023-03-16T12:12:02;100655.38;;;11.08;49.99
26657;BME280;14279;50.010;8.260;2023-03-16T12:15:06;100643.25;;;11.47;48.75
26657;BME280;14279;50.010;8.260;2023-03-16T12:17:36;100639.78;;;11.47;48.88
26657;BME280;14279;50.010;8.260;2023-03-16T12:20:09;100653.31;;;11.74;48.01
26657;BME280;14279;50.010;8.260;2023-03-16T12:22:44;100647.38;;;11.70;48.70
26657;BME280;14279;50.010;8.260;2023-03-16T12:25:26;100639.91;;;11.82;48.11
26657;BME280;14279;50.010;8.260;2023-03-16T12:27:56;100637.66;;;11.74;48.06
26657;BME280;14279;50.010;8.260;2023-03-16T12:30:31;100628.56;;;12.02;47.04
26657;BME280;14279;50.010;8.260;2023-03-16T12:33:05;100626.88;;;12.01;47.46
26657;BME280;14279;50.010;8.260;2023-03-16T12:35:37;100622.81;;;11.76;47.88
26657;BME280;14279;50.010;8.260;2023-03-16T12:41:10;100614.47;;;11.87;47.82
26657;BME280;14279;50.010;8.260;2023-03-16T12:43:47;100615.59;;;12.00;47.79
26657;BME280;14279;50.010;8.260;2023-03-16T12:46:38;100607.56;;;12.40;46.62
26657;BME280;14279;50.010;8.260;2023-03-16T12:49:07;100589.34;;;12.74;46.00
26657;BME280;14279;50.010;8.260;2023-03-16T12:51:39;100588.59;;;13.05;45.56
26657;BME280;14279;50.010;8.260;2023-03-16T12:54:18;100579.00;;;12.72;45.61
26657;BME280;14279;50.010;8.260;2023-03-16T12:56:46;100588.34;;;13.10;44.68
26657;BME280;14279;50.010;8.260;2023-03-16T12:59:17;100581.94;;;13.16;45.12
26657;BME280;14279;50.010;8.260;2023-03-16T13:01:44;100589.34;;;12.74;45.04
26657;BME280;14279;50.010;8.260;2023-03-16T13:04:32;100581.72;;;13.36;44.26
26657;BME280;14279;50.010;8.260;2023-03-16T13:07:07;100573.06;;;13.02;44.45
26657;BME280;14279;50.010;8.260;2023-03-16T13:09:35;100561.72;;;13.35;43.85
26657;BME280;14279;50.010;8.260;2023-03-16T13:12:06;100566.25;;;13.00;44.19
26657;BME280;14279;50.010;8.260;2023-03-16T13:14:41;100555.75;;;12.84;44.10
26657;BME280;14279;50.010;8.260;2023-03-16T13:19:42;100552.72;;;12.75;45.34
26657;BME280;14279;50.010;8.260;2023-03-16T13:24:55;100542.97;;;12.95;44.55
26657;BME280;14279;50.010;8.260;2023-03-16T13:27:31;100540.47;;;13.26;43.18
26657;BME280;14279;50.010;8.260;2023-03-16T13:30:11;100535.88;;;13.13;43.48
26657;BME280;14279;50.010;8.260;2023-03-16T13:32:39;100538.78;;;13.25;43.35
26657;BME280;14279;50.010;8.260;2023-03-16T13:35:07;100525.53;;;13.12;43.11
26657;BME280;14279;50.010;8.260;2023-03-16T13:37:40;100528.06;;;13.13;43.43
26657;BME280;14279;50.010;8.260;2023-03-16T13:40:25;100537.59;;;12.98;44.29
26657;BME280;14279;50.010;8.260;2023-03-16T13:42:56;100530.00;;;13.26;42.80
26657;BME280;14279;50.010;8.260;2023-03-16T13:45:27;100525.38;;;13.15;43.08
26657;BME280;14279;50.010;8.260;2023-03-16T13:47:55;100531.63;;;13.44;43.15
26657;BME280;14279;50.010;8.260;2023-03-16T13:50:20;100517.53;;;13.31;42.88
26657;BME280;14279;50.010;8.260;2023-03-16T13:52:57;100519.38;;;12.97;43.86
26657;BME280;14279;50.010;8.260;2023-03-16T13:55:34;100512.38;;;12.97;44.07
26657;BME280;14279;50.010;8.260;2023-03-16T13:58:01;100499.88;;;12.70;43.67
26657;BME280;14279;50.010;8.260;2023-03-16T14:00:30;100503.16;;;12.74;43.31
26657;BME280;14279;50.010;8.260;2023-03-16T14:02:58;100513.88;;;12.85;42.87
26657;BME280;14279;50.010;8.260;2023-03-16T14:05:28;100506.75;;;13.05;42.31
26657;BME280;14279;50.010;8.260;2023-03-16T14:07:55;100500.75;;;13.35;41.29
26657;BME280;14279;50.010;8.260;2023-03-16T14:10:23;100492.16;;;13.49;40.73
26657;BME280;14279;50.010;8.260;2023-03-16T14:12:54;100481.44;;;13.37;40.66
26657;BME280;14279;50.010;8.260;2023-03-16T14:15:21;100478.22;;;13.16;41.13
26657;BME280;14279;50.010;8.260;2023-03-16T14:17:51;100482.88;;;13.43;39.97
26657;BME280;14279;50.010;8.260;2023-03-16T14:20:19;100483.06;;;13.24;40.54
26657;BME280;14279;50.010;8.260;2023-03-16T14:22:45;100485.09;;;13.81;39.42
26657;BME280;14279;50.010;8.260;2023-03-16T14:25:38;100476.66;;;13.46;39.47
26657;BME280;14279;50.010;8.260;2023-03-16T14:28:05;100477.19;;;13.67;38.85
26657;BME280;14279;50.010;8.260;2023-03-16T14:30:31;100465.31;;;13.61;38.48
26657;BME280;14279;50.010;8.260;2023-03-16T14:33:05;100462.06;;;13.72;38.00
26657;BME280;14279;50.010;8.260;2023-03-16T14:35:41;100456.13;;;13.85;37.61
26657;BME280;14279;50.010;8.260;2023-03-16T14:38:30;100452.44;;;14.03;37.09
26657;BME280;14279;50.010;8.260;2023-03-16T14:41:05;100455.13;;;13.87;37.55
26657;BME280;14279;50.010;8.260;2023-03-16T14:43:35;100455.47;;;13.81;37.97
26657;BME280;14279;50.010;8.260;2023-03-16T14:46:04;100456.88;;;13.87;38.32
26657;BME280;14279;50.010;8.260;2023-03-16T14:48:32;100457.66;;;13.73;38.16
26657;BME280;14279;50.010;8.260;2023-03-16T14:51:00;100455.63;;;13.78;39.11
26657;BME280;14279;50.010;8.260;2023-03-16T14:53:27;100449.38;;;14.25;38.59
26657;BME280;14279;50.010;8.260;2023-03-16T14:55:54;100439.00;;;13.79;39.75
26657;BME280;14279;50.010;8.260;2023-03-16T14:58:19;100433.47;;;14.14;38.89
26657;BME280;14279;50.010;8.260;2023-03-16T15:00:52;100432.22;;;13.91;39.09
26657;BME280;14279;50.010;8.260;2023-03-16T15:03:19;100441.56;;;13.18;38.90
26657;BME280;14279;50.010;8.260;2023-03-16T15:05:48;100436.06;;;12.90;39.11
26657;BME280;14279;50.010;8.260;2023-03-16T15:08:43;100440.03;;;12.82;39.65
26657;BME280;14279;50.010;8.260;2023-03-16T15:11:10;100434.50;;;12.88;39.68
26657;BME280;14279;50.010;8.260;2023-03-16T15:13:36;100425.56;;;13.08;39.55
26657;BME280;14279;50.010;8.260;2023-03-16T15:16:05;100429.59;;;13.14;39.56
26657;BME280;14279;50.010;8.260;2023-03-16T15:18:33;100430.94;;;12.73;39.56
26657;BME280;14279;50.010;8.260;2023-03-16T15:21:00;100422.78;;;12.79;39.50
26657;BME280;14279;50.010;8.260;2023-03-16T15:23:26;100425.75;;;13.35;38.70
26657;BME280;14279;50.010;8.260;2023-03-16T15:25:53;100436.75;;;12.78;39.76
26657;BME280;14279;50.010;8.260;2023-03-16T15:28:25;100440.53;;;12.88;40.70
26657;BME280;14279;50.010;8.260;2023-03-16T15:30:56;100437.03;;;12.73;40.56
26657;BME280;14279;50.010;8.260;2023-03-16T15:33:22;100423.63;;;12.63;41.10
26657;BME280;14279;50.010;8.260;2023-03-16T15:35:49;100412.75;;;12.87;40.92
26657;BME280;14279;50.010;8.260;2023-03-16T15:38:19;100407.44;;;13.05;40.09
26657;BME280;14279;50.010;8.260;2023-03-16T15:40:46;100417.19;;;13.17;39.69
26657;BME280;14279;50.010;8.260;2023-03-16T15:43:16;100405.16;;;12.99;39.88
26657;BME280;14279;50.010;8.260;2023-03-16T15:45:43;100410.97;;;12.72;39.98
26657;BME280;14279;50.010;8.260;2023-03-16T15:48:09;100409.88;;;12.76;39.85
26657;BME280;14279;50.010;8.260;2023-03-16T15:50:37;100413.41;;;13.07;39.09
26657;BME280;14279;50.010;8.260;2023-03-16T15:53:09;100409.72;;;13.11;39.09
26657;BME280;14279;50.010;8.260;2023-03-16T15:55:43;100404.56;;;13.10;38.99
26657;BME280;14279;50.010;8.260;2023-03-16T15:58:17;100399.69;;;12.87;40.21
26657;BME280;14279;50.010;8.260;2023-03-16T16:00:44;100391.50;;;12.93;40.50
26657;BME280;14279;50.010;8.260;2023-03-16T16:03:11;100389.91;;;12.91;40.35
26657;BME280;14279;50.010;8.260;2023-03-16T16:05:37;100388.72;;;12.48;40.87
26657;BME280;14279;50.010;8.260;2023-03-16T16:08:02;100386.88;;;12.99;40.04
26657;BME280;14279;50.010;8.260;2023-03-16T16:10:28;100394.09;;;13.10;39.80
26657;BME280;14279;50.010;8.260;2023-03-16T16:12:54;100392.44;;;12.60;40.68
26657;BME280;14279;50.010;8.260;2023-03-16T16:15:26;100393.28;;;12.61;40.98
26657;BME280;14279;50.010;8.260;2023-03-16T16:17:53;100386.78;;;12.68;40.63
26657;BME280;14279;50.010;8.260;2023-03-16T16:22:44;100384.00;;;12.55;41.24
26657;BME280;14279;50.010;8.260;2023-03-16T16:25:13;100377.44;;;12.80;40.96
26657;BME280;14279;50.010;8.260;2023-03-16T16:27:39;100368.56;;;12.67;40.88
26657;BME280;14279;50.010;8.260;2023-03-16T16:30:31;100372.81;;;12.69;41.36
26657;BME280;14279;50.010;8.260;2023-03-16T16:32:57;100363.84;;;12.89;40.79
26657;BME280;14279;50.010;8.260;2023-03-16T16:35:26;100365.63;;;13.05;40.51
26657;BME280;14279;50.010;8.260;2023-03-16T16:37:52;100367.53;;;13.01;40.35
26657;BME280;14279;50.010;8.260;2023-03-16T16:40:20;100371.94;;;13.01;40.40